createdAt,value
2018-04-23T00:00:16.179Z,17.41
2018-04-23T00:01:16.124Z,17.43
2018-04-23T00:02:16.195Z,17.36
2018-04-23T00:03:16.084Z,17.32
2018-04-23T00:04:16.105Z,17.44
2018-04-23T00:05:16.047Z,17.44
2018-04-23T00:06:16.119Z,17.32
2018-04-23T00:07:16.008Z,17.41
2018-04-23T00:08:16.031Z,17.44
2018-04-23T00:09:15.963Z,17.44
2018-04-23T00:10:16.045Z,17.53
2018-04-23T00:11:15.929Z,17.50
2018-04-23T00:12:15.956Z,17.54
2018-04-23T00:13:15.885Z,17.59
2018-04-23T00:14:15.970Z,17.69
2018-04-23T00:15:15.844Z,17.71
2018-04-23T00:16:15.883Z,17.70
2018-04-23T00:17:15.804Z,17.78
2018-04-23T00:18:15.793Z,17.69
2018-04-23T00:19:15.763Z,17.82
2018-04-23T00:20:15.811Z,17.76
2018-04-23T00:21:15.722Z,17.87
2018-04-23T00:22:15.823Z,17.79
2018-04-23T00:23:15.683Z,17.87
2018-04-23T00:24:15.734Z,17.76
2018-04-23T00:25:15.643Z,17.78
2018-04-23T00:26:15.646Z,17.70
2018-04-23T00:27:15.615Z,17.66
2018-04-23T00:28:15.664Z,17.55
2018-04-23T00:29:15.557Z,17.57
2018-04-23T00:30:15.572Z,17.51
2018-04-23T00:31:15.525Z,17.55
2018-04-23T00:32:15.585Z,17.57
2018-04-23T00:33:15.480Z,17.50
2018-04-23T00:34:15.495Z,17.44
2018-04-23T00:35:15.440Z,17.38
2018-04-23T00:36:15.512Z,17.36
2018-04-23T00:37:15.398Z,17.32
2018-04-23T00:38:15.422Z,17.33
2018-04-23T00:39:15.360Z,17.32
2018-04-23T00:40:15.436Z,17.33
2018-04-23T00:41:15.318Z,17.32
2018-04-23T00:42:15.352Z,17.30
2018-04-23T00:43:15.285Z,17.28
2018-04-23T00:44:15.365Z,17.26
2018-04-23T00:45:15.239Z,17.30
2018-04-23T00:46:15.278Z,17.30
2018-04-23T00:47:15.201Z,17.23
2018-04-23T00:48:15.290Z,17.20
2018-04-23T00:49:15.156Z,17.32
2018-04-23T00:50:15.200Z,17.29
2018-04-23T00:51:15.117Z,17.32
2018-04-23T00:52:15.114Z,17.22
2018-04-23T00:53:15.075Z,17.18
2018-04-23T00:54:15.130Z,17.25
2018-04-23T00:55:15.037Z,17.13
2018-04-23T00:56:15.038Z,17.20
2018-04-23T00:57:14.993Z,17.23
2018-04-23T00:58:15.053Z,17.26
2018-04-23T00:59:14.954Z,17.11
2018-04-23T01:00:14.965Z,17.22
2018-04-23T01:01:14.913Z,17.18
2018-04-23T01:02:14.978Z,17.28
2018-04-23T01:03:14.871Z,17.28
2018-04-23T01:04:14.891Z,17.32
2018-04-23T01:05:14.833Z,17.26
2018-04-23T01:06:14.907Z,17.26
2018-04-23T01:07:14.793Z,17.28
2018-04-23T01:08:14.822Z,17.23
2018-04-23T01:09:14.752Z,17.10
2018-04-23T01:10:14.830Z,17.11
2018-04-23T01:11:14.710Z,17.10
2018-04-23T01:12:14.741Z,17.07
2018-04-23T01:13:14.670Z,17.07
2018-04-23T01:14:14.756Z,17.17
2018-04-23T01:15:14.630Z,17.10
2018-04-23T01:16:14.667Z,17.15
2018-04-23T01:17:14.592Z,17.04
2018-04-23T01:18:14.682Z,17.06
2018-04-23T01:19:14.553Z,17.04
2018-04-23T01:20:14.593Z,17.07
2018-04-23T01:21:14.510Z,17.07
2018-04-23T01:22:14.505Z,17.18
2018-04-23T01:23:14.470Z,17.11
2018-04-23T01:24:14.518Z,17.04
2018-04-23T01:25:14.428Z,16.99
2018-04-23T01:26:14.434Z,17.10
2018-04-23T01:27:14.386Z,17.07
2018-04-23T01:28:14.450Z,17.10
2018-04-23T01:29:14.348Z,17.06
2018-04-23T01:30:14.356Z,17.15
2018-04-23T01:31:14.306Z,17.07
2018-04-23T01:32:14.372Z,17.08
2018-04-23T01:33:14.265Z,17.11
2018-04-23T01:34:14.285Z,17.11
2018-04-23T01:35:14.238Z,17.03
2018-04-23T01:36:14.298Z,17.10
2018-04-23T01:37:14.186Z,17.08
2018-04-23T01:38:14.209Z,17.08
2018-04-23T01:39:14.147Z,17.06
2018-04-23T01:40:14.223Z,17.04
2018-04-23T01:41:14.104Z,17.03
2018-04-23T01:42:14.135Z,16.96
2018-04-23T01:43:14.067Z,16.96
2018-04-23T01:44:14.151Z,16.93
2018-04-23T01:45:14.022Z,16.93
2018-04-23T01:46:14.061Z,16.93
2018-04-23T01:47:13.980Z,16.93
2018-04-23T01:48:14.073Z,16.88
2018-04-23T01:49:13.940Z,16.86
2018-04-23T01:50:13.988Z,16.89
2018-04-23T01:51:13.905Z,16.90
2018-04-23T01:52:13.899Z,16.92
2018-04-23T01:53:13.865Z,16.95
2018-04-23T01:54:13.910Z,16.89
2018-04-23T01:55:13.821Z,16.90
2018-04-23T01:56:13.822Z,16.92
2018-04-23T01:57:13.781Z,16.83
2018-04-23T01:58:13.837Z,16.85
2018-04-23T01:59:13.791Z,16.88
2018-04-23T02:00:13.747Z,16.74
2018-04-23T02:01:13.697Z,16.74
2018-04-23T02:02:13.764Z,16.74
2018-04-23T02:03:13.661Z,16.73
2018-04-23T02:04:13.673Z,16.74
2018-04-23T02:05:13.616Z,16.80
2018-04-23T02:06:13.688Z,16.73
2018-04-23T02:07:13.577Z,16.77
2018-04-23T02:08:13.599Z,16.81
2018-04-23T02:09:13.534Z,16.77
2018-04-23T02:10:13.615Z,16.74
2018-04-23T02:11:13.496Z,16.71
2018-04-23T02:12:13.525Z,16.65
2018-04-23T02:13:13.453Z,16.63
2018-04-23T02:14:13.539Z,16.73
2018-04-23T02:15:13.411Z,16.65
2018-04-23T02:16:13.450Z,16.63
2018-04-23T02:17:13.370Z,16.67
2018-04-23T02:18:13.362Z,16.70
2018-04-23T02:19:13.332Z,16.58
2018-04-23T02:20:13.375Z,16.68
2018-04-23T02:21:13.288Z,16.58
2018-04-23T02:22:13.290Z,16.58
2018-04-23T02:23:13.255Z,16.70
2018-04-23T02:24:13.302Z,16.67
2018-04-23T02:25:13.206Z,16.70
2018-04-23T02:26:13.217Z,16.65
2018-04-23T02:27:13.164Z,16.71
2018-04-23T02:28:13.228Z,16.63
2018-04-23T02:29:13.125Z,16.65
2018-04-23T02:30:13.141Z,16.67
2018-04-23T02:31:13.083Z,16.65
2018-04-23T02:32:13.154Z,16.60
2018-04-23T02:33:13.042Z,16.56
2018-04-23T02:34:13.066Z,16.60
2018-04-23T02:35:13.002Z,16.60
2018-04-23T02:36:13.081Z,16.56
2018-04-23T02:37:12.959Z,16.58
2018-04-23T02:38:12.992Z,16.56
2018-04-23T02:39:12.919Z,16.53
2018-04-23T02:40:13.013Z,16.55
2018-04-23T02:41:12.875Z,16.49
2018-04-23T02:42:12.923Z,16.50
2018-04-23T02:43:12.838Z,16.53
2018-04-23T02:44:12.833Z,16.59
2018-04-23T02:45:12.792Z,16.59
2018-04-23T02:46:12.847Z,16.56
2018-04-23T02:47:12.756Z,16.60
2018-04-23T02:48:12.756Z,16.62
2018-04-23T02:49:12.712Z,16.60
2018-04-23T02:50:12.774Z,16.56
2018-04-23T02:51:12.672Z,16.58
2018-04-23T02:52:12.685Z,16.60
2018-04-23T02:53:12.634Z,16.56
2018-04-23T02:54:12.702Z,16.53
2018-04-23T02:55:12.588Z,16.59
2018-04-23T02:56:12.615Z,16.50
2018-04-23T02:57:12.546Z,16.50
2018-04-23T02:58:12.624Z,16.50
2018-04-23T02:59:12.504Z,16.52
2018-04-23T03:00:12.539Z,16.48
2018-04-23T03:01:12.461Z,16.55
2018-04-23T03:02:12.553Z,16.59
2018-04-23T03:03:12.417Z,16.59
2018-04-23T03:04:12.465Z,16.62
2018-04-23T03:05:12.380Z,16.63
2018-04-23T03:06:12.376Z,16.58
2018-04-23T03:07:12.339Z,16.58
2018-04-23T03:08:12.388Z,16.55
2018-04-23T03:09:12.294Z,16.52
2018-04-23T03:10:12.302Z,16.50
2018-04-23T03:11:12.255Z,16.44
2018-04-23T03:12:12.312Z,16.48
2018-04-23T03:13:12.214Z,16.41
2018-04-23T03:14:12.225Z,16.50
2018-04-23T03:15:12.172Z,16.55
2018-04-23T03:16:12.238Z,16.55
2018-04-23T03:17:12.125Z,16.45
2018-04-23T03:18:12.150Z,16.45
2018-04-23T03:19:12.085Z,16.38
2018-04-23T03:20:12.164Z,16.38
2018-04-23T03:21:12.044Z,16.38
2018-04-23T03:22:12.075Z,16.42
2018-04-23T03:23:12.001Z,16.42
2018-04-23T03:24:12.090Z,16.41
2018-04-23T03:25:11.960Z,16.41
2018-04-23T03:26:12.005Z,16.38
2018-04-23T03:27:11.918Z,16.37
2018-04-23T03:28:11.915Z,16.37
2018-04-23T03:29:11.873Z,16.41
2018-04-23T03:30:11.928Z,16.35
2018-04-23T03:31:11.835Z,16.35
2018-04-23T03:32:11.837Z,16.31
2018-04-23T03:33:11.790Z,16.30
2018-04-23T03:34:11.855Z,16.40
2018-04-23T03:35:11.750Z,16.30
2018-04-23T03:36:11.761Z,16.35
2018-04-23T03:37:11.715Z,16.30
2018-04-23T03:38:11.782Z,16.23
2018-04-23T03:39:11.665Z,16.27
2018-04-23T03:40:11.688Z,16.23
2018-04-23T03:41:11.621Z,16.27
2018-04-23T03:42:11.701Z,16.23
2018-04-23T03:43:11.580Z,16.18
2018-04-23T03:44:11.613Z,16.20
2018-04-23T03:45:11.537Z,16.14
2018-04-23T03:46:11.629Z,16.15
2018-04-23T03:47:11.496Z,16.15
2018-04-23T03:48:11.541Z,16.18
2018-04-23T03:49:11.453Z,16.18
2018-04-23T03:50:11.450Z,16.11
2018-04-23T03:51:11.411Z,16.07
2018-04-23T03:52:11.464Z,16.11
2018-04-23T03:53:11.375Z,16.09
2018-04-23T03:54:11.376Z,16.09
2018-04-23T03:55:11.325Z,15.99
2018-04-23T03:56:11.393Z,16.00
2018-04-23T03:57:11.286Z,16.01
2018-04-23T03:58:11.304Z,16.01
2018-04-23T03:59:11.245Z,15.93
2018-04-23T04:00:11.315Z,15.93
2018-04-23T04:01:11.201Z,15.93
2018-04-23T04:02:11.228Z,15.94
2018-04-23T04:03:11.161Z,15.88
2018-04-23T04:04:11.246Z,15.93
2018-04-23T04:05:11.119Z,15.97
2018-04-23T04:06:11.159Z,15.96
2018-04-23T04:07:11.077Z,15.85
2018-04-23T04:08:11.172Z,15.89
2018-04-23T04:09:11.041Z,15.89
2018-04-23T04:10:11.083Z,15.82
2018-04-23T04:11:10.989Z,15.82
2018-04-23T04:12:10.992Z,15.92
2018-04-23T04:13:10.947Z,15.78
2018-04-23T04:14:11.005Z,15.81
2018-04-23T04:15:10.911Z,15.76
2018-04-23T04:16:10.917Z,15.74
2018-04-23T04:17:10.863Z,15.75
2018-04-23T04:18:10.934Z,15.74
2018-04-23T04:19:10.822Z,15.74
2018-04-23T04:20:10.844Z,15.66
2018-04-23T04:21:10.781Z,15.66
2018-04-23T04:22:10.859Z,15.67
2018-04-23T04:23:10.737Z,15.66
2018-04-23T04:24:10.779Z,15.60
2018-04-23T04:25:10.703Z,15.56
2018-04-23T04:26:10.778Z,15.56
2018-04-23T04:27:10.652Z,15.57
2018-04-23T04:28:10.694Z,15.54
2018-04-23T04:29:10.609Z,15.60
2018-04-23T04:30:10.608Z,15.56
2018-04-23T04:31:10.565Z,15.57
2018-04-23T04:32:10.621Z,15.51
2018-04-23T04:33:10.524Z,15.49
2018-04-23T04:34:10.532Z,15.48
2018-04-23T04:35:10.478Z,15.42
2018-04-23T04:36:10.546Z,15.38
2018-04-23T04:37:10.437Z,15.43
2018-04-23T04:38:10.461Z,15.36
2018-04-23T04:39:10.398Z,15.35
2018-04-23T04:40:10.471Z,15.42
2018-04-23T04:41:10.355Z,15.39
2018-04-23T04:42:10.385Z,15.45
2018-04-23T04:43:10.310Z,15.38
2018-04-23T04:44:10.397Z,15.36
2018-04-23T04:45:10.268Z,15.33
2018-04-23T04:46:10.311Z,15.38
2018-04-23T04:47:10.228Z,15.39
2018-04-23T04:48:10.221Z,15.43
2018-04-23T04:49:10.182Z,15.43
2018-04-23T04:50:10.235Z,15.35
2018-04-23T04:51:10.138Z,15.27
2018-04-23T04:52:10.147Z,15.36
2018-04-23T04:53:10.095Z,15.35
2018-04-23T04:54:10.162Z,15.39
2018-04-23T04:55:10.059Z,15.46
2018-04-23T04:56:10.075Z,15.46
2018-04-23T04:57:10.012Z,15.35
2018-04-23T04:58:10.087Z,15.45
2018-04-23T04:59:09.972Z,15.36
2018-04-23T05:00:09.999Z,15.36
2018-04-23T05:01:09.933Z,15.33
2018-04-23T05:02:10.013Z,15.42
2018-04-23T05:03:09.882Z,15.45
2018-04-23T05:04:09.927Z,15.36
2018-04-23T05:05:09.840Z,15.41
2018-04-23T05:06:09.836Z,15.41
2018-04-23T05:07:09.799Z,15.39
2018-04-23T05:08:09.851Z,15.45
2018-04-23T05:09:09.754Z,15.42
2018-04-23T05:10:09.762Z,15.42
2018-04-23T05:11:09.716Z,15.36
2018-04-23T05:12:09.774Z,15.51
2018-04-23T05:13:09.668Z,15.46
2018-04-23T05:14:09.688Z,15.45
2018-04-23T05:15:09.625Z,15.42
2018-04-23T05:16:09.703Z,15.42
2018-04-23T05:17:09.582Z,15.39
2018-04-23T05:18:09.615Z,15.43
2018-04-23T05:19:09.539Z,15.41
2018-04-23T05:20:09.631Z,15.43
2018-04-23T05:21:09.494Z,15.46
2018-04-23T05:22:09.540Z,15.43
2018-04-23T05:23:09.454Z,15.43
2018-04-23T05:24:09.451Z,15.48
2018-04-23T05:25:09.412Z,15.42
2018-04-23T05:26:09.465Z,15.41
2018-04-23T05:27:09.370Z,15.46
2018-04-23T05:28:09.377Z,15.43
2018-04-23T05:29:09.329Z,15.43
2018-04-23T05:30:09.393Z,15.41
2018-04-23T05:31:09.282Z,15.42
2018-04-23T05:32:09.303Z,15.39
2018-04-23T05:33:09.238Z,15.43
2018-04-23T05:34:09.318Z,15.45
2018-04-23T05:35:09.199Z,15.43
2018-04-23T05:36:09.228Z,15.43
2018-04-23T05:37:09.152Z,15.46
2018-04-23T05:38:09.243Z,15.39
2018-04-23T05:39:09.109Z,15.49
2018-04-23T05:40:09.155Z,15.42
2018-04-23T05:41:09.069Z,15.42
2018-04-23T05:42:09.069Z,15.45
2018-04-23T05:43:09.073Z,15.46
2018-04-23T05:44:09.112Z,15.45
2018-04-23T05:45:08.980Z,15.45
2018-04-23T05:46:08.996Z,15.48
2018-04-23T05:47:08.942Z,15.45
2018-04-23T05:48:09.006Z,15.42
2018-04-23T05:49:08.894Z,15.43
2018-04-23T05:50:08.917Z,15.36
2018-04-23T05:51:09.025Z,15.41
2018-04-23T05:52:08.835Z,15.39
2018-04-23T05:53:08.939Z,15.46
2018-04-23T05:54:08.788Z,15.45
2018-04-23T05:55:08.851Z,15.33
2018-04-23T05:56:08.746Z,15.43
2018-04-23T05:57:08.765Z,15.46
2018-04-23T05:58:08.705Z,15.43
2018-04-23T05:59:08.776Z,15.45
2018-04-23T06:00:08.659Z,15.48
2018-04-23T06:01:08.688Z,15.39
2018-04-23T06:02:08.614Z,15.45
2018-04-23T06:03:08.623Z,15.38
2018-04-23T06:04:08.607Z,15.36
2018-04-23T06:05:08.555Z,15.35
2018-04-23T06:06:08.618Z,15.43
2018-04-23T06:07:08.509Z,15.43
2018-04-23T06:08:08.487Z,15.43
2018-04-23T06:09:08.542Z,15.38
2018-04-23T06:10:08.444Z,15.31
2018-04-23T06:11:08.450Z,15.33
2018-04-23T06:12:08.400Z,15.39
2018-04-23T06:13:08.467Z,15.41
2018-04-23T06:14:08.357Z,15.46
2018-04-23T06:15:08.377Z,15.39
2018-04-23T06:16:08.319Z,15.42
2018-04-23T06:17:08.391Z,15.39
2018-04-23T06:18:08.272Z,15.45
2018-04-23T06:19:08.301Z,15.43
2018-04-23T06:20:08.227Z,15.41
2018-04-23T06:21:08.313Z,15.42
2018-04-23T06:22:08.185Z,15.46
2018-04-23T06:23:08.226Z,15.42
2018-04-23T06:24:08.142Z,15.45
2018-04-23T06:25:08.138Z,15.45
2018-04-23T06:26:08.102Z,15.46
2018-04-23T06:27:08.152Z,15.48
2018-04-23T06:28:08.300Z,15.48
2018-04-23T06:29:08.033Z,15.43
2018-04-23T06:30:08.176Z,15.46
2018-04-23T06:31:07.990Z,15.45
2018-04-23T06:32:08.083Z,15.48
2018-04-23T06:33:07.951Z,15.46
2018-04-23T06:34:08.104Z,15.41
2018-04-23T06:35:07.909Z,15.43
2018-04-23T06:36:08.015Z,15.36
2018-04-23T06:37:07.863Z,15.42
2018-04-23T06:38:08.029Z,15.23
2018-04-23T06:39:07.819Z,15.31
2018-04-23T06:40:07.941Z,15.23
2018-04-23T06:41:07.778Z,15.19
2018-04-23T06:42:07.954Z,15.13
2018-04-23T06:43:07.737Z,15.15
2018-04-23T06:44:07.763Z,15.17
2018-04-23T06:45:07.697Z,15.24
2018-04-23T06:46:07.817Z,15.23
2018-04-23T06:47:07.649Z,15.27
2018-04-23T06:48:07.685Z,15.27
2018-04-23T06:49:07.605Z,15.27
2018-04-23T06:50:07.702Z,15.27
2018-04-23T06:51:07.563Z,15.28
2018-04-23T06:52:07.613Z,15.26
2018-04-23T06:53:07.521Z,15.19
2018-04-23T06:54:07.624Z,15.20
2018-04-23T06:55:07.532Z,15.13
2018-04-23T06:56:07.457Z,15.09
2018-04-23T06:57:07.549Z,15.08
2018-04-23T06:58:07.415Z,15.06
2018-04-23T06:59:07.509Z,15.20
2018-04-23T07:00:07.368Z,15.09
2018-04-23T07:01:07.372Z,15.15
2018-04-23T07:02:07.330Z,15.19
2018-04-23T07:03:07.388Z,15.24
2018-04-23T07:04:07.286Z,15.26
2018-04-23T07:05:07.355Z,15.27
2018-04-23T07:06:07.239Z,15.35
2018-04-23T07:07:07.313Z,15.36
2018-04-23T07:08:07.197Z,15.36
2018-04-23T07:09:07.223Z,15.26
2018-04-23T07:10:07.154Z,15.36
2018-04-23T07:11:07.236Z,15.31
2018-04-23T07:12:07.109Z,15.49
2018-04-23T07:13:07.149Z,15.41
2018-04-23T07:14:07.070Z,15.43
2018-04-23T07:15:07.160Z,15.39
2018-04-23T07:16:07.025Z,15.45
2018-04-23T07:17:07.075Z,15.42
2018-04-23T07:18:06.980Z,15.43
2018-04-23T07:19:06.986Z,15.59
2018-04-23T07:20:06.937Z,15.64
2018-04-23T07:21:06.997Z,15.68
2018-04-23T07:22:06.897Z,15.68
2018-04-23T07:23:06.912Z,15.75
2018-04-23T07:24:06.882Z,15.82
2018-04-23T07:25:06.926Z,15.88
2018-04-23T07:26:06.809Z,15.89
2018-04-23T07:27:06.836Z,15.94
2018-04-23T07:28:06.764Z,15.97
2018-04-23T07:29:06.849Z,16.01
2018-04-23T07:30:06.722Z,16.01
2018-04-23T07:31:06.761Z,15.96
2018-04-23T07:32:06.677Z,15.99
2018-04-23T07:33:06.672Z,15.96
2018-04-23T07:34:06.636Z,16.09
2018-04-23T07:35:06.695Z,16.11
2018-04-23T07:36:06.593Z,16.27
2018-04-23T07:37:06.635Z,16.27
2018-04-23T07:38:06.551Z,16.33
2018-04-23T07:39:06.610Z,16.30
2018-04-23T07:40:06.515Z,16.37
2018-04-23T07:41:06.526Z,16.33
2018-04-23T07:42:06.466Z,16.35
2018-04-23T07:43:06.543Z,16.38
2018-04-23T07:44:06.426Z,16.23
2018-04-23T07:45:06.451Z,16.22
2018-04-23T07:46:06.382Z,16.23
2018-04-23T07:47:06.463Z,16.11
2018-04-23T07:48:06.338Z,16.11
2018-04-23T07:49:06.375Z,16.12
2018-04-23T07:50:06.297Z,16.11
2018-04-23T07:51:06.389Z,16.14
2018-04-23T07:52:06.253Z,16.11
2018-04-23T07:53:06.302Z,16.22
2018-04-23T07:54:06.263Z,16.25
2018-04-23T07:55:06.212Z,16.15
2018-04-23T07:56:06.173Z,16.26
2018-04-23T07:57:06.230Z,16.16
2018-04-23T07:58:06.133Z,16.15
2018-04-23T07:59:06.139Z,16.15
2018-04-23T08:00:06.084Z,16.09
2018-04-23T08:01:06.153Z,16.04
2018-04-23T08:02:06.048Z,16.07
2018-04-23T08:03:06.063Z,16.14
2018-04-23T08:04:05.999Z,16.14
2018-04-23T08:05:06.079Z,16.11
2018-04-23T08:06:05.960Z,16.22
2018-04-23T08:07:05.989Z,16.26
2018-04-23T08:08:05.916Z,16.26
2018-04-23T08:09:06.003Z,16.40
2018-04-23T08:10:05.879Z,16.33
2018-04-23T08:11:05.913Z,16.40
2018-04-23T08:12:05.829Z,16.33
2018-04-23T08:13:05.826Z,16.38
2018-04-23T08:14:05.786Z,16.40
2018-04-23T08:15:05.842Z,16.35
2018-04-23T08:16:05.744Z,16.37
2018-04-23T08:17:05.750Z,16.41
2018-04-23T08:18:05.702Z,16.42
2018-04-23T08:19:05.765Z,16.37
2018-04-23T08:20:05.660Z,16.35
2018-04-23T08:21:05.676Z,16.35
2018-04-23T08:22:05.621Z,16.38
2018-04-23T08:23:05.691Z,16.37
2018-04-23T08:24:05.581Z,16.40
2018-04-23T08:25:05.602Z,16.38
2018-04-23T08:26:05.530Z,16.44
2018-04-23T08:27:05.615Z,16.35
2018-04-23T08:28:05.485Z,16.41
2018-04-23T08:29:05.527Z,16.40
2018-04-23T08:30:05.449Z,16.45
2018-04-23T08:31:05.441Z,16.62
2018-04-23T08:32:05.405Z,16.52
2018-04-23T08:33:05.452Z,16.59
2018-04-23T08:34:05.365Z,16.68
2018-04-23T08:35:05.365Z,16.77
2018-04-23T08:36:05.324Z,16.78
2018-04-23T08:37:05.388Z,16.81
2018-04-23T08:38:05.280Z,16.92
2018-04-23T08:39:05.291Z,16.88
2018-04-23T08:40:05.236Z,16.92
2018-04-23T08:41:05.308Z,16.88
2018-04-23T08:42:05.210Z,16.88
2018-04-23T08:43:05.217Z,16.95
2018-04-23T08:44:05.158Z,16.98
2018-04-23T08:45:05.232Z,16.93
2018-04-23T08:46:05.109Z,16.95
2018-04-23T08:47:05.148Z,16.98
2018-04-23T08:48:05.125Z,17.04
2018-04-23T08:49:05.157Z,17.06
2018-04-23T08:50:05.027Z,17.04
2018-04-23T08:51:05.073Z,17.07
2018-04-23T08:52:04.985Z,17.28
2018-04-23T08:53:04.985Z,17.40
2018-04-23T08:54:04.949Z,17.46
2018-04-23T08:55:05.009Z,17.59
2018-04-23T08:56:04.911Z,17.64
2018-04-23T08:57:04.913Z,17.74
2018-04-23T08:58:04.861Z,17.82
2018-04-23T08:59:04.923Z,17.81
2018-04-23T09:00:04.872Z,17.59
2018-04-23T09:01:04.837Z,17.64
2018-04-23T09:02:04.776Z,17.76
2018-04-23T09:03:04.847Z,17.74
2018-04-23T09:04:04.736Z,17.82
2018-04-23T09:05:04.761Z,17.78
2018-04-23T09:06:04.704Z,17.99
2018-04-23T09:07:04.775Z,18.15
2018-04-23T09:08:04.656Z,18.17
2018-04-23T09:09:04.688Z,18.13
2018-04-23T09:10:04.612Z,18.19
2018-04-23T09:11:04.700Z,18.34
2018-04-23T09:12:04.568Z,18.25
2018-04-23T09:13:04.615Z,18.24
2018-04-23T09:14:04.530Z,18.31
2018-04-23T09:15:04.524Z,18.18
2018-04-23T09:16:04.485Z,18.10
2018-04-23T09:17:04.568Z,18.10
2018-04-23T09:18:04.450Z,18.07
2018-04-23T09:19:04.448Z,18.07
2018-04-23T09:20:04.408Z,18.09
2018-04-23T09:21:04.465Z,18.09
2018-04-23T09:22:04.364Z,18.19
2018-04-23T09:23:04.375Z,18.10
2018-04-23T09:24:04.324Z,18.21
2018-04-23T09:25:04.389Z,18.47
2018-04-23T09:26:04.284Z,18.79
2018-04-23T09:27:04.300Z,19.08
2018-04-23T09:28:04.246Z,19.38
2018-04-23T09:29:04.317Z,19.58
2018-04-23T09:30:04.201Z,19.70
2018-04-23T09:31:04.227Z,19.83
2018-04-23T09:32:04.167Z,19.83
2018-04-23T09:33:04.239Z,19.91
2018-04-23T09:34:04.125Z,20.23
2018-04-23T09:35:04.152Z,20.27
2018-04-23T09:36:04.085Z,20.34
2018-04-23T09:37:04.167Z,20.54
2018-04-23T09:38:04.040Z,20.61
2018-04-23T09:39:04.077Z,20.62
2018-04-23T09:40:04.008Z,20.61
2018-04-23T09:41:04.091Z,20.49
2018-04-23T09:42:03.968Z,20.38
2018-04-23T09:43:04.003Z,20.13
2018-04-23T09:44:03.925Z,20.05
2018-04-23T09:45:04.018Z,20.00
2018-04-23T09:46:03.885Z,19.78
2018-04-23T09:47:03.939Z,19.53
2018-04-23T09:48:03.845Z,19.28
2018-04-23T09:49:03.840Z,19.28
2018-04-23T09:50:03.821Z,19.39
2018-04-23T09:51:03.855Z,19.51
2018-04-23T09:52:03.772Z,19.61
2018-04-23T09:53:03.769Z,19.86
2018-04-23T09:54:03.729Z,20.25
2018-04-23T09:55:03.782Z,20.71
2018-04-23T09:56:03.693Z,21.02
2018-04-23T09:57:03.693Z,21.01
2018-04-23T09:58:03.651Z,21.13
2018-04-23T09:59:03.707Z,21.01
2018-04-23T10:00:03.614Z,20.71
2018-04-23T10:01:03.620Z,20.43
2018-04-23T10:02:03.576Z,20.16
2018-04-23T10:03:03.632Z,19.90
2018-04-23T10:04:03.541Z,19.80
2018-04-23T10:05:03.544Z,19.70
2018-04-23T10:06:03.556Z,19.63
2018-04-23T10:07:03.559Z,19.63
2018-04-23T10:08:03.464Z,19.66
2018-04-23T10:09:03.469Z,19.57
2018-04-23T10:10:03.424Z,19.43
2018-04-23T10:11:03.484Z,19.33
2018-04-23T10:12:03.388Z,19.14
2018-04-23T10:13:03.395Z,19.14
2018-04-23T10:14:03.353Z,19.06
2018-04-23T10:15:03.408Z,19.08
2018-04-23T10:16:03.311Z,19.23
2018-04-23T10:17:03.320Z,19.28
2018-04-23T10:18:03.272Z,19.32
2018-04-23T10:19:03.335Z,19.39
2018-04-23T10:20:03.233Z,19.61
2018-04-23T10:21:03.257Z,19.79
2018-04-23T10:22:03.197Z,19.88
2018-04-23T10:23:03.260Z,19.97
2018-04-23T10:24:03.159Z,20.24
2018-04-23T10:25:03.172Z,20.51
2018-04-23T10:26:03.124Z,20.56
2018-04-23T10:27:03.189Z,20.91
2018-04-23T10:28:03.084Z,21.05
2018-04-23T10:29:03.101Z,21.05
2018-04-23T10:30:03.053Z,21.02
2018-04-23T10:31:03.114Z,21.01
2018-04-23T10:32:03.007Z,21.14
2018-04-23T10:33:03.028Z,20.93
2018-04-23T10:34:02.973Z,21.01
2018-04-23T10:35:03.044Z,21.13
2018-04-23T10:36:02.935Z,21.36
2018-04-23T10:37:02.954Z,21.21
2018-04-23T10:38:02.899Z,21.24
2018-04-23T10:39:02.964Z,21.26
2018-04-23T10:40:02.860Z,21.48
2018-04-23T10:41:02.876Z,21.82
2018-04-23T10:42:02.829Z,22.09
2018-04-23T10:43:02.895Z,22.27
2018-04-23T10:44:02.790Z,22.25
2018-04-23T10:45:02.802Z,22.10
2018-04-23T10:46:02.758Z,22.13
2018-04-23T10:47:02.816Z,21.97
2018-04-23T10:48:02.719Z,22.07
2018-04-23T10:49:02.727Z,22.09
2018-04-23T10:50:02.683Z,22.20
2018-04-23T10:51:02.797Z,22.34
2018-04-23T10:52:02.648Z,22.54
2018-04-23T10:53:02.654Z,22.65
2018-04-23T10:54:02.614Z,22.64
2018-04-23T10:55:02.669Z,22.27
2018-04-23T10:56:02.578Z,22.27
2018-04-23T10:57:02.583Z,22.17
2018-04-23T10:58:02.547Z,22.07
2018-04-23T10:59:02.596Z,21.98
2018-04-23T11:00:02.509Z,21.82
2018-04-23T11:01:02.505Z,21.95
2018-04-23T11:02:02.472Z,21.99
2018-04-23T11:03:02.524Z,22.04
2018-04-23T11:04:02.439Z,22.02
2018-04-23T11:05:02.538Z,22.13
2018-04-23T11:06:02.404Z,22.17
2018-04-23T11:07:02.444Z,22.17
2018-04-23T11:08:02.370Z,22.19
2018-04-23T11:09:02.457Z,21.95
2018-04-23T11:10:02.336Z,21.95
2018-04-23T11:11:02.369Z,21.82
2018-04-23T11:12:02.300Z,22.10
2018-04-23T11:13:02.389Z,22.22
2018-04-23T11:14:02.264Z,22.44
2018-04-23T11:15:02.299Z,22.57
2018-04-23T11:16:02.233Z,22.46
2018-04-23T11:17:02.313Z,22.67
2018-04-23T11:18:02.197Z,22.80
2018-04-23T11:19:02.224Z,22.44
2018-04-23T11:20:02.163Z,22.52
2018-04-23T11:21:02.242Z,22.50
2018-04-23T11:22:02.130Z,22.50
2018-04-23T11:23:02.153Z,22.75
2018-04-23T11:24:02.095Z,22.93
2018-04-23T11:25:02.166Z,22.99
2018-04-23T11:26:02.063Z,23.05
2018-04-23T11:27:02.076Z,23.08
2018-04-23T11:28:02.028Z,23.24
2018-04-23T11:29:02.096Z,23.26
2018-04-23T11:30:01.999Z,23.20
2018-04-23T11:31:02.020Z,23.01
2018-04-23T11:32:01.965Z,22.84
2018-04-23T11:33:02.019Z,22.75
2018-04-23T11:34:01.941Z,22.62
2018-04-23T11:35:02.032Z,22.28
2018-04-23T11:36:01.907Z,22.17
2018-04-23T11:37:01.885Z,22.02
2018-04-23T11:38:01.863Z,22.17
2018-04-23T11:39:01.958Z,22.32
2018-04-23T11:40:01.832Z,22.54
2018-04-23T11:41:01.869Z,22.50
2018-04-23T11:42:01.799Z,22.60
2018-04-23T11:43:01.882Z,22.57
2018-04-23T11:44:01.765Z,22.69
2018-04-23T11:45:01.794Z,22.77
2018-04-23T11:46:01.733Z,22.80
2018-04-23T11:47:01.808Z,22.89
2018-04-23T11:48:01.700Z,22.87
2018-04-23T11:49:01.718Z,23.07
2018-04-23T11:50:01.668Z,23.02
2018-04-23T11:51:01.730Z,22.94
2018-04-23T11:52:01.636Z,22.99
2018-04-23T11:53:01.687Z,22.72
2018-04-23T11:54:01.604Z,22.59
2018-04-23T11:55:01.658Z,22.86
2018-04-23T11:56:01.573Z,22.92
2018-04-23T11:57:01.670Z,22.54
2018-04-23T11:58:01.541Z,22.37
2018-04-23T11:59:01.584Z,22.25
2018-04-23T12:00:01.514Z,22.06
2018-04-23T12:01:01.597Z,22.29
2018-04-23T12:02:01.477Z,22.39
2018-04-23T12:03:01.508Z,22.54
2018-04-23T12:04:01.442Z,22.50
2018-04-23T12:05:01.522Z,22.47
2018-04-23T12:06:01.414Z,22.57
2018-04-23T12:07:01.433Z,22.62
2018-04-23T12:08:01.381Z,22.54
2018-04-23T12:09:01.451Z,22.62
2018-04-23T12:10:01.348Z,22.72
2018-04-23T12:11:01.358Z,23.01
2018-04-23T12:12:01.316Z,23.23
2018-04-23T12:13:01.377Z,23.47
2018-04-23T12:14:01.283Z,23.62
2018-04-23T12:15:01.284Z,23.58
2018-04-23T12:16:01.249Z,22.82
2018-04-23T12:17:01.299Z,22.57
2018-04-23T12:18:01.221Z,22.65
2018-04-23T12:19:01.313Z,22.74
2018-04-23T12:20:01.189Z,22.68
2018-04-23T12:21:01.225Z,22.97
2018-04-23T12:22:01.154Z,22.94
2018-04-23T12:23:01.239Z,22.53
2018-04-23T12:24:01.125Z,22.59
2018-04-23T12:25:01.150Z,22.69
2018-04-23T12:26:01.090Z,22.82
2018-04-23T12:27:01.164Z,22.96
2018-04-23T12:28:01.061Z,22.89
2018-04-23T12:29:01.074Z,22.82
2018-04-23T12:30:01.030Z,22.57
2018-04-23T12:31:01.092Z,22.32
2018-04-23T12:32:00.997Z,22.28
2018-04-23T12:33:00.999Z,22.01
2018-04-23T12:34:00.966Z,22.16
2018-04-23T12:35:01.016Z,22.20
2018-04-23T12:36:00.933Z,22.34
2018-04-23T12:37:01.030Z,22.41
2018-04-23T12:38:00.901Z,22.68
2018-04-23T12:39:00.942Z,22.68
2018-04-23T12:40:00.874Z,22.44
2018-04-23T12:41:00.957Z,22.46
2018-04-23T12:42:00.837Z,22.71
2018-04-23T12:43:00.868Z,22.28
2018-04-23T12:44:00.808Z,21.82
2018-04-23T12:45:00.876Z,21.34
2018-04-23T12:46:00.857Z,21.44
2018-04-23T12:47:00.797Z,21.45
2018-04-23T12:48:00.743Z,21.21
2018-04-23T12:49:00.807Z,21.34
2018-04-23T12:50:00.710Z,21.75
2018-04-23T12:51:00.738Z,22.09
2018-04-23T12:52:00.678Z,22.29